Time;durP1;ratioP1;P1;durP2;ratioP2;P2;SDS_P1;SDS_P2;PMS_P1;PMS_P2;Temp;Humidity;BMP_temperature;BMP_pressure;BME280_temperature;BME280_humidity;BME280_pressure;Samples;Min_cycle;Max_cycle;Signal;HPM_P1;HPM_P2
2023/07/21 00:01:41;;;;;;;2.90;2.10;;;;;;;25.38;nan;62228.88;5092643;28;20180;-67
2023/07/21 00:04:07;;;;;;;2.72;2.00;;;;;;;25.55;nan;62270.69;5092174;28;20169;-67
2023/07/21 00:06:32;;;;;;;4.28;2.42;;;;;;;25.40;nan;62327.97;5092010;28;20176;-66
2023/07/21 00:08:57;;;;;;;2.90;2.53;;;;;;;25.34;nan;62242.63;5092333;28;20189;-66
2023/07/21 00:11:23;;;;;;;2.22;1.90;;;;;;;25.77;nan;62274.84;5092342;28;20170;-67
2023/07/21 00:13:48;;;;;;;3.10;2.13;;;;;;;25.37;nan;62248.69;5092228;28;20177;-66
2023/07/21 00:16:14;;;;;;;3.38;2.38;;;;;;;25.36;nan;62216.13;5092450;28;20279;-66
2023/07/21 00:18:41;;;;;;;3.20;2.10;;;;;;;25.31;nan;62241.84;5092147;28;20174;-67
2023/07/21 00:21:07;;;;;;;5.20;2.60;;;;;;;25.21;nan;62397.28;5092238;28;20248;-66
2023/07/21 00:23:33;;;;;;;4.50;2.47;;;;;;;25.50;nan;62386.50;5092173;28;20222;-66
2023/07/21 00:26:00;;;;;;;3.97;2.33;;;;;;;25.43;nan;62247.66;5091970;28;20166;-66
2023/07/21 00:28:26;;;;;;;3.65;2.08;;;;;;;25.42;nan;62207.28;5074677;28;20638;-67
2023/07/21 00:30:52;;;;;;;2.85;2.00;;;;;;;25.63;nan;62364.16;5092374;28;20170;-66
2023/07/21 00:33:17;;;;;;;4.72;2.25;;;;;;;25.59;nan;62330.22;5092244;28;20624;-67
2023/07/21 00:35:43;;;;;;;3.20;2.13;;;;;;;25.49;nan;62280.66;5092389;28;20165;-66
2023/07/21 00:38:09;;;;;;;3.03;2.13;;;;;;;25.70;nan;62361.69;5092037;28;20652;-67
2023/07/21 00:40:37;;;;;;;4.43;2.25;;;;;;;25.61;nan;62387.47;5091889;28;20585;-67
2023/07/21 00:43:03;;;;;;;4.05;2.55;;;;;;;25.50;nan;62190.22;5091810;28;20170;-59
2023/07/21 00:45:34;;;;;;;5.05;2.10;;;;;;;24.90;nan;62286.59;5091449;28;20580;-59
2023/07/21 00:48:05;;;;;;;4.20;2.60;;;;;;;25.39;nan;62363.47;5091483;28;20200;-60
2023/07/21 00:50:30;;;;;;;3.53;2.22;;;;;;;25.92;nan;62315.53;5092017;28;20162;-62
2023/07/21 00:52:58;;;;;;;4.35;2.30;;;;;;;25.58;nan;62235.41;5091478;28;20230;-61
2023/07/21 00:55:24;;;;;;;3.60;2.40;;;;;;;25.71;nan;62318.31;5092276;28;20737;-59
2023/07/21 00:57:50;;;;;;;2.65;2.10;;;;;;;25.71;nan;62352.34;5095844;28;20177;-59
2023/07/21 01:00:15;;;;;;;5.65;2.20;;;;;;;25.35;nan;62364.13;5095709;28;20174;-60
2023/07/21 01:02:41;;;;;;;3.15;2.10;;;;;;;25.11;nan;62221.09;5096107;28;20264;-60
2023/07/21 01:05:08;;;;;;;4.07;2.55;;;;;;;24.49;nan;62044.44;5077238;28;20264;-60
2023/07/21 01:07:36;;;;;;;3.95;2.38;;;;;;;24.53;nan;62059.44;5095457;28;20232;-59
2023/07/21 01:10:02;;;;;;;6.30;2.47;;;;;;;24.76;nan;62127.41;5095170;28;20633;-60
2023/07/21 01:12:28;;;;;;;3.78;2.38;;;;;;;24.59;nan;62098.19;5095685;28;20237;-60
2023/07/21 01:14:54;;;;;;;4.25;2.40;;;;;;;24.59;nan;62226.22;5095394;28;20184;-60
2023/07/21 01:17:20;;;;;;;3.65;2.63;;;;;;;24.49;nan;62222.09;5095137;28;20186;-60
2023/07/21 01:19:49;;;;;;;6.07;2.40;;;;;;;24.39;nan;62129.72;5095377;28;20307;-60
2023/07/21 01:22:36;;;;;;;4.40;2.40;;;;;;;24.87;nan;62273.31;5095294;28;20173;-60
2023/07/21 01:25:11;;;;;;;3.13;2.28;;;;;;;24.48;nan;62239.81;5095165;28;20204;-61
2023/07/21 01:27:39;;;;;;;5.75;2.17;;;;;;;24.22;nan;62058.69;5095068;28;20208;-60
2023/07/21 01:30:09;;;;;;;3.22;2.50;;;;;;;24.40;nan;62091.66;5095061;28;20162;-59
2023/07/21 01:32:37;;;;;;;5.25;2.42;;;;;;;24.32;nan;62072.13;5095144;28;20564;-59
2023/07/21 01:35:04;;;;;;;9.88;2.50;;;;;;;24.19;nan;62045.41;5094607;28;20177;-59
2023/07/21 01:37:31;;;;;;;3.85;2.63;;;;;;;24.42;nan;62143.56;5094931;28;20256;-60
2023/07/21 01:39:58;;;;;;;5.07;2.40;;;;;;;23.97;nan;62082.44;5094917;28;20169;-59
2023/07/21 01:42:29;;;;;;;3.17;2.47;;;;;;;24.14;nan;62318.53;5095092;28;20169;-62
2023/07/21 01:44:56;;;;;;;3.85;2.47;;;;;;;24.09;nan;62195.88;5095031;28;20161;-60
2023/07/21 01:47:21;;;;;;;3.42;2.33;;;;;;;24.20;nan;62098.75;5094549;28;20676;-60
2023/07/21 01:49:47;;;;;;;3.17;2.42;;;;;;;24.12;nan;62214.97;5094498;28;20176;-59
2023/07/21 01:52:17;;;;;;;4.25;2.45;;;;;;;23.90;nan;62043.72;5094539;28;20173;-60
2023/07/21 01:54:47;;;;;;;7.32;2.50;;;;;;;24.23;nan;62179.94;5094761;28;20701;-59
2023/07/21 01:57:20;;;;;;;6.32;2.78;;;;;;;24.34;nan;62137.06;5094675;28;20178;-59
2023/07/21 01:59:47;;;;;;;3.42;2.50;;;;;;;24.22;nan;62073.78;5094608;28;20185;-59
2023/07/21 02:02:14;;;;;;;4.82;2.70;;;;;;;24.06;nan;62087.47;5094835;28;20209;-59
2023/07/21 02:04:49;;;;;;;4.63;2.70;;;;;;;24.08;nan;62147.19;5094632;28;20229;-60
2023/07/21 02:07:14;;;;;;;3.45;2.60;;;;;;;23.81;nan;62067.41;5093396;28;20268;-59
2023/07/21 02:09:39;;;;;;;3.78;2.83;;;;;;;23.70;nan;62363.38;5094399;28;20264;-59
2023/07/21 02:12:05;;;;;;;5.38;2.88;;;;;;;23.73;nan;62034.81;5094266;28;20589;-60
2023/07/21 02:14:31;;;;;;;3.78;2.30;;;;;;;23.43;nan;61964.72;5093879;28;20177;-60
2023/07/21 02:16:57;;;;;;;4.93;2.85;;;;;;;23.64;nan;61967.75;5094158;28;20197;-60
2023/07/21 02:19:22;;;;;;;4.28;2.83;;;;;;;23.78;nan;62061.94;5094206;28;20173;-59
2023/07/21 02:21:48;;;;;;;4.00;2.55;;;;;;;23.94;nan;62042.47;5093886;28;20218;-60
2023/07/21 02:24:13;;;;;;;5.00;2.70;;;;;;;23.54;nan;62055.50;5094295;28;20166;-60
2023/07/21 02:26:38;;;;;;;5.43;2.72;;;;;;;23.62;nan;62153.34;5094314;28;20657;-60
2023/07/21 02:29:05;;;;;;;5.60;3.28;;;;;;;23.41;nan;61985.34;5093869;28;20208;-59
2023/07/21 02:31:31;;;;;;;5.75;3.30;;;;;;;23.59;nan;62074.25;5094017;28;20185;-59
2023/07/21 02:33:56;;;;;;;4.63;2.80;;;;;;;23.60;nan;62027.84;5094021;28;20580;-60
2023/07/21 02:36:21;;;;;;;4.55;3.00;;;;;;;23.49;nan;61976.78;5094273;28;20180;-59
2023/07/21 02:38:48;;;;;;;5.05;3.00;;;;;;;23.55;nan;62123.91;5093931;28;20414;-59
2023/07/21 02:41:13;;;;;;;3.35;2.45;;;;;;;23.75;nan;62063.75;5093651;28;20261;-59
2023/07/21 02:43:38;;;;;;;4.60;3.00;;;;;;;23.57;nan;61996.31;5093530;28;20211;-59
2023/07/21 02:46:04;;;;;;;4.72;2.90;;;;;;;23.44;nan;62049.34;5093871;28;20173;-59
2023/07/21 02:48:32;;;;;;;3.30;2.50;;;;;;;23.29;nan;62123.53;5093442;28;20176;-59
2023/07/21 02:51:00;;;;;;;5.07;3.13;;;;;;;23.56;nan;62062.44;5093552;28;20169;-58
2023/07/21 02:53:26;;;;;;;3.95;2.60;;;;;;;23.52;nan;62029.19;5093573;28;20587;-62
2023/07/21 02:55:52;;;;;;;4.82;2.58;;;;;;;23.49;nan;62133.28;5093328;28;20656;-59
2023/07/21 02:58:17;;;;;;;3.85;3.13;;;;;;;20.98;nan;63597.22;5091071;28;20652;-59
2023/07/21 03:00:43;;;;;;;5.03;2.90;;;;;;;23.18;nan;61970.19;5072724;28;20184;-60
2023/07/21 03:03:14;;;;;;;4.35;3.00;;;;;;;23.17;nan;61942.97;5072804;28;20209;-59
2023/07/21 03:05:41;;;;;;;4.78;3.05;;;;;;;23.45;nan;62044.69;5072300;28;20246;-59
2023/07/21 03:08:07;;;;;;;4.00;2.85;;;;;;;23.20;nan;62123.69;5072778;28;20628;-59
2023/07/21 03:10:33;;;;;;;3.90;2.92;;;;;;;23.31;nan;62279.66;5072336;28;20192;-59
2023/07/21 03:12:58;;;;;;;5.15;3.35;;;;;;;23.36;nan;62014.13;5072382;28;20174;-60
2023/07/21 03:15:23;;;;;;;7.50;3.20;;;;;;;23.39;nan;62017.56;5071838;28;20182;-60
2023/07/21 03:17:49;;;;;;;5.45;2.97;;;;;;;23.99;nan;62189.16;5070445;28;20201;-58
2023/07/21 03:20:15;;;;;;;4.82;2.85;;;;;;;24.10;nan;62103.03;5070563;28;20174;-58
2023/07/21 03:22:44;;;;;;;5.57;3.22;;;;;;;25.04;nan;62255.50;5070675;28;20696;-59
2023/07/21 03:25:11;;;;;;;4.80;2.95;;;;;;;25.31;nan;62260.16;5070472;28;20258;-59
2023/07/21 03:27:39;;;;;;;3.65;2.65;;;;;;;25.98;nan;62366.31;5069803;28;20268;-59
2023/07/21 03:30:12;;;;;;;5.93;2.90;;;;;;;26.27;nan;62478.63;5080902;28;20174;-59
2023/07/21 03:32:38;;;;;;;5.15;2.80;;;;;;;26.89;nan;62676.97;5079110;28;20257;-60
2023/07/21 03:35:07;;;;;;;4.25;2.75;;;;;;;27.60;nan;62547.72;5072664;28;20174;-60
2023/07/21 03:37:36;;;;;;;6.18;3.08;;;;;;;28.14;nan;62636.72;5091633;28;20288;-61
2023/07/21 03:40:06;;;;;;;9.23;3.45;;;;;;;28.33;nan;62753.69;5092527;28;20174;-59
2023/07/21 03:42:35;;;;;;;4.97;2.65;;;;;;;28.88;nan;62734.63;5076658;28;20174;-60
2023/07/21 03:45:04;;;;;;;5.28;2.90;;;;;;;29.70;nan;62903.91;5090183;28;20572;-61
2023/07/21 03:47:33;;;;;;;5.78;3.15;;;;;;;29.96;nan;63054.50;5071506;28;20186;-61
2023/07/21 03:49:59;;;;;;;8.38;3.05;;;;;;;29.88;nan;62934.56;5074810;28;20286;-60
2023/07/21 03:52:25;;;;;;;4.07;2.63;;;;;;;30.34;nan;62951.97;5086007;28;20257;-59
2023/07/21 03:54:50;;;;;;;8.50;3.08;;;;;;;30.69;nan;63082.50;5071947;28;20170;-59
2023/07/21 03:57:15;;;;;;;5.88;3.10;;;;;;;31.02;nan;63116.72;5083097;28;20220;-59
2023/07/21 03:59:42;;;;;;;4.85;2.90;;;;;;;31.85;nan;63303.66;5092659;28;20530;-59
2023/07/21 04:02:10;;;;;;;6.10;2.63;;;;;;;32.60;nan;63402.28;5092245;28;20631;-60
2023/07/21 04:04:35;;;;;;;3.70;2.72;;;;;;;33.11;nan;63447.34;5092180;28;20640;-60
2023/07/21 04:07:01;;;;;;;5.75;3.05;;;;;;;33.65;nan;63523.00;5092087;28;20283;-60
2023/07/21 04:09:27;;;;;;;6.35;2.92;;;;;;;34.08;nan;63624.63;5092449;28;20260;-60
2023/07/21 04:11:52;;;;;;;4.43;2.80;;;;;;;34.62;nan;63747.66;5092087;28;20534;-60
2023/07/21 04:14:18;;;;;;;6.75;3.10;;;;;;;35.06;nan;63877.22;5092203;28;20196;-60
2023/07/21 04:16:43;;;;;;;5.80;2.92;;;;;;;34.66;nan;63773.53;5091811;28;20650;-60
2023/07/21 04:19:09;;;;;;;6.43;3.17;;;;;;;34.27;nan;63710.34;5092396;28;20208;-60
2023/07/21 04:21:34;;;;;;;6.95;2.95;;;;;;;34.05;nan;63639.72;5091681;28;20655;-60
2023/07/21 04:23:59;;;;;;;9.55;3.45;;;;;;;34.42;nan;63708.53;5092501;28;20211;-60
2023/07/21 04:26:25;;;;;;;7.57;3.25;;;;;;;35.12;nan;63834.25;5092377;28;20592;-60
2023/07/21 04:28:50;;;;;;;5.05;2.67;;;;;;;35.56;nan;63926.72;5091855;28;20184;-60
2023/07/21 04:31:21;;;;;;;7.95;2.97;;;;;;;35.43;nan;63968.06;5091752;28;20251;-60
2023/07/21 04:33:47;;;;;;;5.30;3.25;;;;;;;35.65;nan;63996.31;5092763;28;20161;-61
2023/07/21 04:36:13;;;;;;;5.03;2.90;;;;;;;35.29;nan;63946.47;5091400;28;20168;-60
2023/07/21 04:38:38;;;;;;;4.10;2.97;;;;;;;34.68;nan;63767.91;5087839;28;20220;-60
2023/07/21 04:41:04;;;;;;;9.15;3.13;;;;;;;33.65;nan;63599.34;5076677;28;20177;-60
2023/07/21 04:43:29;;;;;;;4.35;3.00;;;;;;;33.62;nan;63572.56;5083558;28;20178;-60
2023/07/21 04:45:55;;;;;;;4.00;3.05;;;;;;;33.61;nan;63613.28;5071753;28;20176;-60
2023/07/21 04:48:21;;;;;;;5.40;3.40;;;;;;;33.24;nan;63539.25;5084435;28;20184;-60
2023/07/21 04:50:56;;;;;;;6.20;3.33;;;;;;;32.25;nan;63336.59;5091873;28;20188;-60
2023/07/21 04:53:22;;;;;;;5.35;3.13;;;;;;;31.88;nan;63219.84;5092266;28;20207;-62
2023/07/21 04:55:49;;;;;;;7.38;3.28;;;;;;;32.03;nan;63263.59;5091555;28;20187;-60
2023/07/21 04:58:14;;;;;;;7.10;3.70;;;;;;;30.85;nan;63213.84;5091723;28;20268;-59
2023/07/21 05:00:40;;;;;;;4.13;3.10;;;;;;;31.39;nan;63161.94;5091828;28;20173;-62
2023/07/21 05:03:05;;;;;;;8.43;3.20;;;;;;;31.45;nan;63269.25;5090287;28;20173;-62
2023/07/21 05:05:33;;;;;;;7.22;2.97;;;;;;;31.67;nan;63237.97;5070767;28;20213;-60
2023/07/21 05:08:01;;;;;;;10.02;3.30;;;;;;;32.30;nan;63313.25;5070863;28;20255;-60
2023/07/21 05:10:27;;;;;;;4.88;2.80;;;;;;;32.39;nan;63616.84;5069875;28;20553;-62
2023/07/21 05:12:53;;;;;;;4.28;3.00;;;;;;;;;;5071058;28;20188;-62
2023/07/21 05:15:18;;;;;;;6.68;3.00;;;;;;;32.18;nan;63265.03;5070632;28;20644;-61
2023/07/21 05:17:44;;;;;;;6.97;3.30;;;;;;;31.63;nan;63230.72;5070383;28;20224;-62
2023/07/21 05:20:11;;;;;;;4.57;3.00;;;;;;;31.74;nan;63283.03;5070983;28;20629;-63
2023/07/21 05:22:37;;;;;;;8.27;3.38;;;;;;;32.07;nan;63371.34;5070772;28;20169;-62
2023/07/21 05:25:05;;;;;;;5.82;3.00;;;;;;;31.91;nan;63284.13;5070473;28;20550;-61
2023/07/21 05:27:31;;;;;;;6.15;3.08;;;;;;;31.47;nan;63220.78;5071001;28;20690;-62
2023/07/21 05:29:58;;;;;;;6.07;3.20;;;;;;;31.97;nan;63299.56;5070052;28;20173;-61
2023/07/21 05:32:24;;;;;;;5.32;3.08;;;;;;;31.84;nan;63225.81;5070081;28;20189;-61
2023/07/21 05:34:49;;;;;;;4.93;2.70;;;;;;;31.19;nan;63159.47;5070748;28;20543;-61
2023/07/21 05:37:15;;;;;;;6.20;3.33;;;;;;;31.16;nan;63227.91;5070713;28;20196;-62
2023/07/21 05:39:41;;;;;;;7.85;3.30;;;;;;;30.77;nan;63328.72;5070246;28;20677;-61
2023/07/21 05:42:07;;;;;;;5.38;3.13;;;;;;;29.88;nan;62926.66;5070742;28;20269;-62
2023/07/21 05:44:33;;;;;;;4.93;3.08;;;;;;;30.05;nan;62972.56;5074288;28;20237;-61
2023/07/21 05:46:59;;;;;;;6.05;3.20;;;;;;;29.92;nan;63123.69;5073790;28;20633;-62
2023/07/21 05:49:25;;;;;;;4.88;3.25;;;;;;;29.97;nan;62921.19;5074254;28;20170;-61
2023/07/21 05:51:51;;;;;;;5.60;3.05;;;;;;;29.68;nan;62922.72;5074343;28;20169;-62
2023/07/21 05:54:16;;;;;;;6.70;3.70;;;;;;;29.43;nan;62944.03;5073346;28;20322;-61
2023/07/21 05:56:42;;;;;;;4.53;3.22;;;;;;;29.46;nan;62939.59;5088940;28;20271;-61
2023/07/21 05:59:07;;;;;;;7.28;3.55;;;;;;;29.28;nan;63097.97;5075462;28;20624;-62
2023/07/21 06:01:35;;;;;;;4.57;3.03;;;;;;;29.17;nan;62811.47;5057470;28;20620;-63
2023/07/21 06:04:01;;;;;;;5.18;3.15;;;;;;;28.85;nan;62783.25;5093581;28;20673;-63
2023/07/21 06:06:28;;;;;;;4.80;3.38;;;;;;;28.71;nan;62717.22;5093938;28;20280;-61
2023/07/21 06:08:53;;;;;;;4.90;3.50;;;;;;;28.66;nan;62843.56;5093417;28;20158;-63
2023/07/21 06:11:19;;;;;;;4.78;3.33;;;;;;;28.98;nan;62843.47;5093396;28;20180;-61
2023/07/21 06:13:44;;;;;;;4.38;3.30;;;;;;;29.09;nan;62739.09;5093223;28;20169;-62
2023/07/21 06:16:10;;;;;;;4.82;3.25;;;;;;;29.20;nan;62804.38;5093088;28;20184;-62
2023/07/21 06:18:38;;;;;;;10.00;3.60;;;;;;;29.47;nan;62922.28;5092978;28;20196;-62
2023/07/21 06:21:03;;;;;;;7.50;3.58;;;;;;;29.41;nan;62834.31;5093476;28;20632;-62
2023/07/21 06:23:29;;;;;;;6.60;3.42;;;;;;;29.71;nan;62941.97;5093195;28;20175;-62
2023/07/21 06:25:54;;;;;;;5.35;3.20;;;;;;;29.90;nan;62946.84;5092913;28;20173;-62
2023/07/21 06:28:20;;;;;;;6.72;3.33;;;;;;;29.84;nan;63006.41;5093300;28;20164;-62
2023/07/21 06:30:45;;;;;;;6.70;3.30;;;;;;;29.98;nan;62966.56;5093203;28;20176;-62
2023/07/21 06:33:11;;;;;;;4.78;3.20;;;;;;;30.11;nan;62971.53;5093400;28;20640;-62
2023/07/21 06:35:36;;;;;;;5.95;3.70;;;;;;;30.21;nan;63035.78;5093640;28;20613;-63
2023/07/21 06:38:03;;;;;;;6.13;3.22;;;;;;;30.33;nan;63061.63;5088473;28;20242;-62
2023/07/21 06:40:30;;;;;;;4.75;3.30;;;;;;;30.29;nan;63005.41;5079108;28;20207;-63
2023/07/21 06:42:56;;;;;;;5.28;3.55;;;;;;;30.11;nan;62928.75;5083851;28;20216;-63
2023/07/21 06:45:21;;;;;;;9.88;3.55;;;;;;;30.43;nan;63013.00;5072589;28;20273;-62
2023/07/21 06:47:47;;;;;;;5.97;3.38;;;;;;;30.58;nan;63143.16;5086649;28;20227;-62
2023/07/21 06:50:12;;;;;;;6.40;3.50;;;;;;;30.95;nan;63095.41;5093185;28;20624;-63
2023/07/21 06:52:39;;;;;;;5.60;3.42;;;;;;;31.16;nan;63164.50;5092777;28;20606;-62
2023/07/21 06:55:05;;;;;;;6.22;3.50;;;;;;;31.19;nan;63157.41;5091880;28;20189;-61
2023/07/21 06:57:31;;;;;;;5.20;3.30;;;;;;;31.04;nan;63061.47;5092973;28;20207;-63
2023/07/21 06:59:57;;;;;;;5.82;3.60;;;;;;;30.88;nan;63169.81;5092088;28;20255;-64
2023/07/21 07:02:22;;;;;;;9.25;3.20;;;;;;;30.83;nan;63229.47;5092699;28;20223;-63
2023/07/21 07:04:48;;;;;;;7.00;3.45;;;;;;;31.13;nan;63195.38;5092546;28;20212;-61
2023/07/21 07:07:15;;;;;;;6.07;3.70;;;;;;;31.27;nan;63171.88;5092433;28;20687;-61
2023/07/21 07:09:41;;;;;;;5.88;3.63;;;;;;;31.19;nan;63152.13;5092435;28;20644;-62
2023/07/21 07:12:08;;;;;;;5.40;3.85;;;;;;;31.28;nan;63188.88;5091763;28;20177;-62
2023/07/21 07:14:33;;;;;;;4.97;3.28;;;;;;;31.30;nan;63391.44;5092539;28;20165;-64
2023/07/21 07:16:58;;;;;;;4.90;3.30;;;;;;;31.32;nan;63153.88;5092720;28;20663;-64
2023/07/21 07:19:24;;;;;;;9.48;3.40;;;;;;;31.18;nan;63139.81;5092095;28;20597;-62
2023/07/21 07:21:49;;;;;;;6.68;4.03;;;;;;;31.20;nan;63210.81;5092457;28;20209;-62
2023/07/21 07:24:15;;;;;;;6.25;4.00;;;;;;;31.03;nan;63392.50;5091929;28;20172;-64
2023/07/21 07:26:40;;;;;;;5.53;3.30;;;;;;;31.17;nan;63117.53;5091629;28;20169;-63
2023/07/21 07:29:06;;;;;;;6.38;3.45;;;;;;;31.33;nan;63199.34;5091848;28;20701;-63
2023/07/21 07:31:31;;;;;;;5.75;3.55;;;;;;;31.36;nan;63171.69;5092324;28;20222;-63
2023/07/21 07:33:57;;;;;;;5.63;3.15;;;;;;;31.54;nan;63286.97;5092512;28;20172;-63
2023/07/21 07:36:23;;;;;;;6.60;3.60;;;;;;;31.92;nan;63293.22;5074118;28;20635;-63
2023/07/21 07:38:48;;;;;;;5.22;3.30;;;;;;;31.88;nan;63304.47;5092206;28;20215;-64
2023/07/21 07:41:14;;;;;;;5.57;3.40;;;;;;;32.04;nan;63354.69;5092862;28;20752;-63
2023/07/21 07:43:39;;;;;;;9.68;3.72;;;;;;;32.04;nan;63373.19;5092511;28;20173;-62
2023/07/21 07:46:07;;;;;;;4.70;3.00;;;;;;;31.63;nan;63151.97;5092576;28;20177;-63
2023/07/21 07:48:36;;;;;;;5.90;3.40;;;;;;;32.04;nan;63248.88;5092491;28;20169;-62
2023/07/21 07:51:06;;;;;;;6.25;3.60;;;;;;;32.14;nan;63466.75;5074051;28;20608;-63
2023/07/21 07:53:32;;;;;;;6.75;3.70;;;;;;;31.61;nan;63379.09;5092386;28;20182;-63
2023/07/21 07:55:58;;;;;;;5.70;3.50;;;;;;;32.12;nan;63390.38;5092213;28;20670;-63
2023/07/21 07:58:23;;;;;;;10.57;3.60;;;;;;;32.13;nan;63460.34;5092747;28;20195;-63
2023/07/21 08:00:49;;;;;;;5.72;4.00;;;;;;;31.82;nan;63146.81;5092420;28;20180;-67
2023/07/21 08:03:14;;;;;;;7.45;3.65;;;;;;;32.22;nan;63349.00;5092238;28;20180;-63
2023/07/21 08:05:41;;;;;;;4.68;3.40;;;;;;;32.11;nan;63304.00;5091212;28;20686;-62
2023/07/21 08:08:08;;;;;;;6.68;3.50;;;;;;;32.24;nan;63313.69;5092019;28;20176;-62
2023/07/21 08:10:34;;;;;;;6.15;3.17;;;;;;;32.06;nan;63356.41;5092046;28;20237;-63
2023/07/21 08:13:04;;;;;;;5.65;3.50;;;;;;;32.11;nan;63286.03;5092257;28;20652;-63
2023/07/21 08:15:30;;;;;;;5.20;3.40;;;;;;;31.72;nan;63500.78;5092348;28;20181;-62
2023/07/21 08:17:55;;;;;;;7.28;4.07;;;;;;;31.83;nan;63206.72;5091778;28;20215;-63
2023/07/21 08:20:21;;;;;;;5.40;3.00;;;;;;;31.70;nan;63312.81;5091952;28;20173;-63
2023/07/21 08:22:47;;;;;;;7.55;3.30;;;;;;;32.27;nan;63333.59;5091937;28;20198;-63
2023/07/21 08:25:13;;;;;;;4.53;3.00;;;;;;;32.31;nan;63338.22;5092048;28;20719;-63
2023/07/21 08:27:39;;;;;;;4.72;3.28;;;;;;;32.01;nan;63277.13;5092212;28;20244;-63
2023/07/21 08:30:05;;;;;;;4.20;2.85;;;;;;;32.22;nan;63353.72;5092021;28;20627;-63
2023/07/21 08:32:30;;;;;;;4.72;2.72;;;;;;;31.92;nan;63235.03;5091821;28;20207;-63
2023/07/21 08:34:56;;;;;;;3.92;2.75;;;;;;;32.38;nan;63341.00;5091919;28;20169;-64
2023/07/21 08:37:22;;;;;;;3.83;2.75;;;;;;;32.03;nan;63427.59;5091597;28;20245;-62
2023/07/21 08:39:47;;;;;;;5.88;3.30;;;;;;;32.25;nan;63333.94;5091633;28;20192;-62
2023/07/21 08:42:14;;;;;;;5.40;2.85;;;;;;;31.98;nan;63355.69;5092022;28;20644;-62
2023/07/21 08:44:40;;;;;;;5.28;3.05;;;;;;;31.92;nan;63290.56;5091617;28;20661;-63
2023/07/21 08:47:06;;;;;;;4.50;3.20;;;;;;;32.18;nan;63399.97;5091787;28;20247;-63
2023/07/21 08:49:32;;;;;;;4.25;2.80;;;;;;;32.53;nan;63370.94;5073481;28;20241;-63
2023/07/21 08:51:58;;;;;;;4.93;3.13;;;;;;;32.37;nan;63357.81;5091677;28;20552;-62
2023/07/21 08:54:24;;;;;;;5.40;3.15;;;;;;;32.33;nan;63340.50;5091775;28;20184;-62
2023/07/21 08:56:50;;;;;;;4.78;3.00;;;;;;;32.79;nan;63403.03;5092396;28;20169;-62
2023/07/21 08:59:18;;;;;;;5.05;3.25;;;;;;;32.74;nan;63455.56;5091840;28;20177;-63
2023/07/21 09:01:44;;;;;;;8.13;3.45;;;;;;;32.95;nan;63485.09;5091769;28;20161;-63
2023/07/21 09:04:20;;;;;;;4.57;3.05;;;;;;;33.14;nan;63511.78;5091304;28;20548;-62
2023/07/21 09:06:54;;;;;;;6.20;2.90;;;;;;;30.68;nan;63207.47;5091645;28;20167;-62
2023/07/21 09:09:24;;;;;;;5.53;3.38;;;;;;;32.59;nan;63427.59;5091697;28;20655;-63
2023/07/21 09:11:58;;;;;;;5.85;3.30;;;;;;;32.99;nan;63523.56;5091835;28;20660;-63
2023/07/21 09:14:35;;;;;;;4.18;3.10;;;;;;;32.84;nan;63430.56;5091619;28;20169;-63
2023/07/21 09:17:03;;;;;;;4.78;3.00;;;;;;;32.74;nan;63548.81;5093091;28;20674;-62
2023/07/21 09:19:28;;;;;;;4.35;3.08;;;;;;;32.94;nan;63685.28;5094908;28;20168;-62
2023/07/21 09:21:56;;;;;;;4.57;2.85;;;;;;;32.86;nan;63678.66;5077138;28;20543;-62
2023/07/21 09:24:21;;;;;;;3.85;2.53;;;;;;;33.30;nan;63554.72;5095166;28;20176;-63
2023/07/21 09:26:47;;;;;;;4.85;3.10;;;;;;;33.55;nan;63550.63;5095510;28;20547;-62
2023/07/21 09:29:18;;;;;;;4.60;3.10;;;;;;;33.84;nan;63618.09;5095006;28;20260;-62
2023/07/21 09:31:44;;;;;;;3.60;2.85;;;;;;;33.88;nan;63618.00;5095016;28;20647;-62
2023/07/21 09:34:09;;;;;;;4.22;2.85;;;;;;;33.96;nan;63592.16;5094797;28;20169;-63
2023/07/21 09:36:35;;;;;;;7.50;3.13;;;;;;;33.74;nan;63843.22;5095256;28;20177;-62
2023/07/21 09:39:03;;;;;;;3.78;2.95;;;;;;;33.52;nan;63534.50;5094673;28;20291;-61
2023/07/21 09:41:32;;;;;;;4.32;2.90;;;;;;;33.56;nan;63586.84;5094976;28;20260;-63
2023/07/21 09:43:58;;;;;;;4.20;2.90;;;;;;;32.99;nan;63322.81;5095170;28;20167;-63
2023/07/21 09:46:24;;;;;;;5.22;2.92;;;;;;;33.16;nan;63488.16;5094685;28;20181;-62
2023/07/21 09:48:49;;;;;;;6.72;3.00;;;;;;;33.40;nan;63705.63;5094494;28;20168;-63
2023/07/21 09:51:18;;;;;;;3.88;2.58;;;;;;;33.02;nan;63413.69;5094763;28;20180;-63
2023/07/21 09:53:44;;;;;;;3.75;2.58;;;;;;;32.86;nan;63512.34;5094542;28;20555;-62
2023/07/21 09:56:11;;;;;;;3.83;2.63;;;;;;;33.14;nan;63703.16;5094648;28;20173;-62
2023/07/21 09:58:42;;;;;;;4.55;2.63;;;;;;;33.19;nan;63526.09;5076598;28;20622;-63
2023/07/21 10:01:09;;;;;;;3.40;2.30;;;;;;;30.13;nan;64970.06;5094882;28;20237;-63
2023/07/21 10:03:35;;;;;;;7.85;2.65;;;;;;;33.47;nan;63517.53;5094253;28;20260;-63
2023/07/21 10:06:02;;;;;;;3.65;2.47;;;;;;;33.47;nan;63579.09;5094810;28;20695;-62
2023/07/21 10:08:31;;;;;;;6.63;2.78;;;;;;;32.91;nan;63427.50;5094835;28;20522;-63
2023/07/21 10:10:58;;;;;;;7.53;2.97;;;;;;;32.93;nan;63439.81;5076633;28;20208;-63
2023/07/21 10:13:27;;;;;;;3.95;2.88;;;;;;;33.13;nan;63523.84;5086936;28;20173;-63
2023/07/21 10:15:59;;;;;;;4.30;2.55;;;;;;;32.98;nan;63557.44;5073735;28;20472;-63
2023/07/21 10:18:24;;;;;;;4.55;2.72;;;;;;;32.97;nan;63376.13;5073653;28;20676;-63
2023/07/21 10:20:53;;;;;;;6.53;3.13;;;;;;;33.15;nan;63465.81;5073709;28;20172;-61
2023/07/21 10:23:38;;;;;;;6.28;2.88;;;;;;;33.34;nan;63550.22;5072217;28;20193;-62
2023/07/21 10:26:07;;;;;;;5.43;2.60;;;;;;;33.66;nan;63587.22;5072722;28;20280;-63
2023/07/21 10:28:44;;;;;;;6.65;2.55;;;;;;;33.65;nan;63586.06;5072953;28;20197;-63
2023/07/21 10:31:22;;;;;;;4.18;2.80;;;;;;;34.09;nan;63668.81;5073522;28;20227;-63
2023/07/21 10:34:03;;;;;;;5.03;2.55;;;;;;;33.76;nan;63651.28;5073200;28;20165;-62
2023/07/21 10:36:53;;;;;;;4.53;2.80;;;;;;;33.48;nan;63632.72;5072605;28;20234;-64
2023/07/21 10:39:20;;;;;;;4.45;2.50;;;;;;;;;;5072747;28;20621;-70
2023/07/21 10:41:47;;;;;;;3.90;2.70;;;;;;;33.96;nan;63873.47;5072685;28;20209;-71
2023/07/21 10:44:13;;;;;;;3.30;2.63;;;;;;;33.71;nan;63691.19;5072649;28;20629;-69
2023/07/21 10:46:50;;;;;;;4.47;2.65;;;;;;;33.90;nan;63654.22;5072107;28;20204;-71
2023/07/21 10:49:17;;;;;;;3.97;2.78;;;;;;;33.85;nan;63613.97;5072289;28;20173;-68
2023/07/21 10:51:49;;;;;;;4.18;2.53;;;;;;;33.97;nan;63577.41;5074303;28;20289;-70
2023/07/21 10:54:16;;;;;;;4.55;2.67;;;;;;;33.65;nan;63523.00;5073559;28;20264;-70
2023/07/21 10:56:51;;;;;;;4.15;2.65;;;;;;;34.30;nan;63713.25;5073493;28;20268;-70
2023/07/21 10:59:20;;;;;;;4.25;2.65;;;;;;;34.43;nan;63766.06;5073409;28;20161;-70
2023/07/21 11:01:50;;;;;;;4.25;2.63;;;;;;;34.33;nan;63647.69;5073244;28;20260;-69
2023/07/21 11:04:20;;;;;;;4.32;3.15;;;;;;;34.37;nan;63718.69;5073174;28;20181;-68
2023/07/21 11:06:50;;;;;;;4.10;2.63;;;;;;;34.62;nan;63800.78;5073198;28;20210;-70
2023/07/21 11:09:17;;;;;;;3.78;2.80;;;;;;;34.37;nan;63824.91;5072945;28;20173;-70
2023/07/21 11:11:44;;;;;;;3.80;2.45;;;;;;;34.32;nan;63691.66;5073064;28;20166;-70
2023/07/21 11:14:21;;;;;;;5.50;2.95;;;;;;;34.77;nan;63770.38;5072523;28;20205;-70
2023/07/21 11:16:51;;;;;;;5.88;3.38;;;;;;;34.67;nan;63821.97;5072803;28;20175;-70
2023/07/21 11:19:17;;;;;;;3.20;2.47;;;;;;;34.55;nan;63837.81;5073021;28;20181;-70
2023/07/21 11:21:43;;;;;;;3.20;2.53;;;;;;;34.89;nan;63712.50;5072643;28;20174;-68
2023/07/21 11:24:09;;;;;;;4.85;2.53;;;;;;;34.96;nan;63802.44;5072761;28;20177;-70
2023/07/21 11:26:38;;;;;;;3.95;2.50;;;;;;;35.22;nan;63861.25;5072726;28;20172;-68
2023/07/21 11:29:06;;;;;;;5.25;2.60;;;;;;;35.17;nan;63882.03;5072767;28;20276;-70
2023/07/21 11:31:33;;;;;;;4.07;2.75;;;;;;;34.82;nan;63954.19;5072946;28;20193;-71
2023/07/21 11:34:00;;;;;;;3.83;2.88;;;;;;;34.99;nan;63800.59;5071353;28;20213;-69
2023/07/21 11:36:31;;;;;;;6.78;2.80;;;;;;;35.06;nan;63821.97;5072832;28;20158;-69
2023/07/21 11:39:04;;;;;;;4.63;2.70;;;;;;;35.05;nan;63900.00;5072493;28;20645;-70
2023/07/21 11:41:39;;;;;;;4.70;3.00;;;;;;;35.47;nan;63902.97;5072972;28;20548;-69
2023/07/21 11:44:09;;;;;;;6.55;3.08;;;;;;;35.32;nan;63888.81;5072733;28;20640;-70
2023/07/21 11:46:38;;;;;;;4.05;2.95;;;;;;;35.34;nan;63968.25;5072647;28;20173;-70
2023/07/21 11:49:10;;;;;;;4.05;2.90;;;;;;;35.00;nan;63831.56;5072370;28;20250;-69
2023/07/21 11:51:50;;;;;;;3.47;2.47;;;;;;;35.52;nan;63887.47;5072093;28;20636;-68